Montes Claros, Brazil
Current Conditions -  °F | °C
As of 1:00 PM on Monday 22 Dec 2014 (Local Time) from SBMK Reporting Station
Scattered Clouds Scattered Clouds  
Wind Chill: 84°   Ceiling: Unl
Heat Index: 86°   Visibility: 6mi
Dew Point: 66°   Wind: 2mph
Humidity: 55%   Direction: 250°WSW
Pressure: 30"   Gusts: NA
Location:  16.72°S, 43.86°W
Report Text: SBMK 221500Z 25002KT 9999 SCT035 29/19 Q1016
Loading
Personal Weather Stations






























Interactive Weather Map New forecast layout! Learn more

10-Day Weather Forecast

Advertisements
Track Severe Weather on mobile